Pretty Lady — 9HVY9 — position and weather

sailwx.info

Track history (hours):
 
Tides and Currents Weather Stations Pressure Air Temp Water Temp Dewpoint Dewpoint Depression Visibility Wind Speed Wind Dir Waves Ship Positions

Pretty Lady

Last reported at 2015-Mar-04 06:32 UTC. Time now 2015-Mar-04 12:54 UTC.
Position N 40°06' W 029°14'.

Length 182 m; draft 8.5 m.

Type: Cargo ship. MMSI: 249617000.

Date/timePositionNaut miles runAvg speedWind from/ knotsBaromVisibWave heightAir tempDewpointWater temp
2015-Mar-04 06:32N 40°06' W 029°14'1010.5
2015-Mar-04 05:33N 39°59' W 029°24'1010.3
2015-Mar-04 04:33N 39°54' W 029°36'1410.1
2015-Mar-04 03:11N 39°45' W 029°50'710.5
2015-Mar-04 02:34N 39°42' W 029°57'1110.9
2015-Mar-04 01:32N 39°35' W 030°08'1111.1
2015-Mar-04 00:32N 39°28' W 030°20'1111.1
2015-Mar-03 23:33N 39°22' W 030°32'1111.3
2015-Mar-03 22:33N 39°16' W 030°44'1111.2
2015-Mar-03 21:33N 39°09' W 030°56'1110.8
2015-Mar-03 20:33N 39°03' W 031°07'1110.6
2015-Mar-03 19:34N 38°58' W 031°19'1110.4
2015-Mar-03 18:28N 38°51' W 031°31'1410.4
2015-Mar-03 17:08N 38°42' W 031°44'610.6
2015-Mar-03 16:33N 38°38' W 031°50'1110.6
2015-Mar-03 15:33N 38°32' W 032°01'1010.3
2015-Mar-03 14:33N 38°25' W 032°10'10 9.9
2015-Mar-03 13:34N 38°18' W 032°20'12 9.4
2015-Mar-03 12:14N 38°11' W 032°32'  
Track history (hours):
 
Tides and Currents Weather Stations Pressure Air Temp Water Temp Dewpoint Dewpoint Depression Visibility Wind Speed Wind Dir Waves Ship Positions

Pretty Lady

Last reported at 2015-Mar-04 06:32 UTC. Time now 2015-Mar-04 12:54 UTC.
Position N 40°06' W 029°14'.

Length 182 m; draft 8.5 m.

Type: Cargo ship. MMSI: 249617000.

Date/timePositionNaut miles runAvg speedWind from/ knotsBaromVisibWave heightAir tempDewpointWater temp
2015-Mar-04 06:32N 40°06' W 029°14'1010.5
2015-Mar-04 05:33N 39°59' W 029°24'1010.3
2015-Mar-04 04:33N 39°54' W 029°36'1410.1
2015-Mar-04 03:11N 39°45' W 029°50'710.5
2015-Mar-04 02:34N 39°42' W 029°57'1110.9
2015-Mar-04 01:32N 39°35' W 030°08'1111.1
2015-Mar-04 00:32N 39°28' W 030°20'1111.1
2015-Mar-03 23:33N 39°22' W 030°32'1111.3
2015-Mar-03 22:33N 39°16' W 030°44'1111.2
2015-Mar-03 21:33N 39°09' W 030°56'1110.8
2015-Mar-03 20:33N 39°03' W 031°07'1110.6
2015-Mar-03 19:34N 38°58' W 031°19'1110.4
2015-Mar-03 18:28N 38°51' W 031°31'1410.4
2015-Mar-03 17:08N 38°42' W 031°44'610.6
2015-Mar-03 16:33N 38°38' W 031°50'1110.6
2015-Mar-03 15:33N 38°32' W 032°01'1010.3
2015-Mar-03 14:33N 38°25' W 032°10'10 9.9
2015-Mar-03 13:34N 38°18' W 032°20'12 9.4
2015-Mar-03 12:14N 38°11' W 032°32'  

Dump ship's entire track history